createdAt,value
2022-08-20T00:00:44.116Z,3.63
2022-08-20T00:01:48.932Z,3.70
2022-08-20T00:03:01.781Z,3.70
2022-08-20T00:04:05.747Z,3.55
2022-08-20T00:05:13.098Z,4.32
2022-08-20T00:06:22.316Z,3.15
2022-08-20T00:07:26.145Z,2.72
2022-08-20T00:08:31.111Z,3.63
2022-08-20T00:09:36.430Z,2.70
2022-08-20T00:10:47.642Z,3.35
2022-08-20T00:11:56.555Z,3.85
2022-08-20T00:13:02.344Z,3.05
2022-08-20T00:14:07.484Z,3.38
2022-08-20T00:15:14.838Z,3.40
2022-08-20T00:16:22.070Z,3.22
2022-08-20T00:17:26.047Z,3.38
2022-08-20T00:18:30.449Z,3.63
2022-08-20T00:19:34.930Z,4.03
2022-08-20T00:20:45.937Z,4.25
2022-08-20T00:21:50.312Z,2.47
2022-08-20T00:22:59.636Z,3.92
2022-08-20T00:24:04.673Z,2.85
2022-08-20T00:25:11.658Z,4.00
2022-08-20T00:26:16.500Z,3.70
2022-08-20T00:27:20.303Z,3.55
2022-08-20T00:28:24.285Z,3.28
2022-08-20T00:29:28.846Z,3.70
2022-08-20T00:30:35.667Z,3.15
2022-08-20T00:31:39.500Z,3.72
2022-08-20T00:32:58.854Z,3.35
2022-08-20T00:34:02.654Z,2.97
2022-08-20T00:35:08.923Z,3.00
2022-08-20T00:36:18.765Z,2.95
2022-08-20T00:37:22.982Z,3.10
2022-08-20T00:38:27.032Z,3.70
2022-08-20T00:39:30.809Z,3.50
2022-08-20T00:40:55.928Z,3.40
2022-08-20T00:41:59.956Z,3.15
2022-08-20T00:43:23.960Z,3.17
2022-08-20T00:44:28.420Z,3.65
2022-08-20T00:45:35.280Z,2.67
2022-08-20T00:46:41.226Z,3.03
2022-08-20T00:47:51.082Z,3.40
2022-08-20T00:48:58.710Z,3.00
2022-08-20T00:50:06.687Z,3.30
2022-08-20T00:51:38.523Z,3.03
2022-08-20T00:52:49.745Z,3.35
2022-08-20T00:54:00.414Z,3.33
2022-08-20T00:55:08.089Z,2.72
2022-08-20T00:56:13.845Z,3.33
2022-08-20T00:57:53.305Z,3.38
2022-08-20T00:59:05.541Z,2.72
2022-08-20T01:00:28.389Z,2.97
2022-08-20T01:01:48.171Z,3.88
2022-08-20T01:03:00.784Z,3.60
2022-08-20T01:04:10.988Z,3.22
2022-08-20T01:05:15.739Z,3.17
2022-08-20T01:06:19.843Z,2.95
2022-08-20T01:07:38.459Z,3.33
2022-08-20T01:08:43.521Z,3.20
2022-08-20T01:09:59.022Z,3.08
2022-08-20T01:11:09.808Z,2.75
2022-08-20T01:12:16.980Z,3.15
2022-08-20T01:13:25.919Z,3.47
2022-08-20T01:14:46.220Z,3.75
2022-08-20T01:15:55.608Z,3.75
2022-08-20T01:17:08.715Z,3.75
2022-08-20T01:18:25.378Z,3.15
2022-08-20T01:19:46.336Z,2.97
2022-08-20T01:20:56.488Z,3.58
2022-08-20T01:22:24.043Z,3.03
2022-08-20T01:24:15.142Z,4.45
2022-08-20T01:25:56.936Z,3.97
2022-08-20T01:27:04.701Z,3.50
2022-08-20T01:28:10.675Z,3.72
2022-08-20T01:29:21.749Z,3.85
2022-08-20T01:30:29.808Z,3.35
2022-08-20T01:31:38.436Z,3.05
2022-08-20T01:32:42.710Z,3.70
2022-08-20T01:33:47.908Z,3.47
2022-08-20T01:34:51.863Z,3.28
2022-08-20T01:35:56.156Z,3.45
2022-08-20T01:37:01.155Z,2.80
2022-08-20T01:38:07.447Z,3.78
2022-08-20T01:39:15.978Z,3.17
2022-08-20T01:40:53.231Z,3.85
2022-08-20T01:42:19.696Z,3.80
2022-08-20T01:43:24.516Z,3.53
2022-08-20T01:44:30.994Z,3.13
2022-08-20T01:45:36.998Z,3.00
2022-08-20T01:46:47.635Z,3.47
2022-08-20T01:47:51.663Z,3.35
2022-08-20T01:48:57.924Z,3.88
2022-08-20T01:50:26.262Z,2.90
2022-08-20T01:51:31.409Z,3.30
2022-08-20T01:53:07.047Z,3.30
2022-08-20T01:54:11.536Z,3.15
2022-08-20T01:55:16.560Z,2.83
2022-08-20T01:56:27.219Z,3.88
2022-08-20T01:57:32.410Z,3.63
2022-08-20T01:58:43.371Z,3.95
2022-08-20T01:59:50.912Z,3.90
2022-08-20T02:00:54.905Z,2.83
2022-08-20T02:02:04.121Z,4.05
2022-08-20T02:03:08.948Z,3.08
2022-08-20T02:04:18.192Z,2.85
2022-08-20T02:05:22.895Z,3.28
2022-08-20T02:06:29.038Z,3.13
2022-08-20T02:07:33.622Z,3.40
2022-08-20T02:08:38.475Z,3.28
2022-08-20T02:09:43.240Z,2.85
2022-08-20T02:10:47.417Z,3.80
2022-08-20T02:11:53.524Z,3.00
2022-08-20T02:12:59.272Z,2.55
2022-08-20T02:14:07.895Z,3.13
2022-08-20T02:15:15.101Z,3.13
2022-08-20T02:16:25.780Z,2.88
2022-08-20T02:17:30.549Z,2.97
2022-08-20T02:18:34.688Z,3.00
2022-08-20T02:19:48.983Z,3.20
2022-08-20T02:20:53.589Z,3.38
2022-08-20T02:22:07.039Z,2.83
2022-08-20T02:23:13.128Z,3.17
2022-08-20T02:24:17.905Z,3.53
2022-08-20T02:25:30.692Z,3.88
2022-08-20T02:26:38.324Z,3.38
2022-08-20T02:27:49.049Z,2.97
2022-08-20T02:28:56.523Z,3.60
2022-08-20T02:30:27.448Z,3.38
2022-08-20T02:31:34.926Z,4.40
2022-08-20T02:32:41.468Z,3.58
2022-08-20T02:34:21.909Z,3.10
2022-08-20T02:35:13.549Z,3.40
2022-08-20T02:36:20.253Z,2.72
2022-08-20T02:37:24.479Z,3.78
2022-08-20T02:38:28.532Z,3.17
2022-08-20T02:39:33.573Z,3.42
2022-08-20T02:40:38.201Z,2.90
2022-08-20T02:41:42.616Z,3.05
2022-08-20T02:42:47.216Z,3.33
2022-08-20T02:43:51.546Z,2.90
2022-08-20T02:44:58.778Z,2.90
2022-08-20T02:46:03.732Z,3.42
2022-08-20T02:47:08.115Z,3.63
2022-08-20T02:48:23.794Z,4.35
2022-08-20T02:49:27.787Z,3.75
2022-08-20T02:50:32.864Z,3.00
2022-08-20T02:51:37.351Z,3.30
2022-08-20T02:52:47.178Z,3.20
2022-08-20T02:53:56.006Z,3.47
2022-08-20T02:54:59.926Z,3.78
2022-08-20T02:56:07.610Z,4.00
2022-08-20T02:57:20.968Z,2.97
2022-08-20T02:58:25.663Z,2.92
2022-08-20T02:59:29.783Z,3.83
2022-08-20T03:00:37.982Z,3.47
2022-08-20T03:01:42.846Z,2.65
2022-08-20T03:02:48.713Z,4.28
2022-08-20T03:03:52.599Z,3.47
2022-08-20T03:04:57.176Z,3.50
2022-08-20T03:06:01.894Z,3.25
2022-08-20T03:07:07.522Z,3.35
2022-08-20T03:08:15.259Z,3.63
2022-08-20T03:09:19.871Z,3.45
2022-08-20T03:10:34.369Z,3.85
2022-08-20T03:11:39.610Z,4.13
2022-08-20T03:12:43.458Z,4.47
2022-08-20T03:13:49.208Z,3.55
2022-08-20T03:14:53.195Z,3.90
2022-08-20T03:16:00.690Z,3.83
2022-08-20T03:17:05.924Z,4.15
2022-08-20T03:18:10.491Z,4.00
2022-08-20T03:19:14.676Z,4.32
2022-08-20T03:20:22.412Z,4.20
2022-08-20T03:21:32.840Z,3.65
2022-08-20T03:22:40.468Z,3.30
2022-08-20T03:23:44.343Z,3.05
2022-08-20T03:24:48.200Z,3.35
2022-08-20T03:25:52.393Z,4.47
2022-08-20T03:26:56.519Z,3.97
2022-08-20T03:28:01.324Z,3.28
2022-08-20T03:29:05.542Z,3.65
2022-08-20T03:30:14.027Z,2.78
2022-08-20T03:31:18.620Z,3.75
2022-08-20T03:32:23.318Z,3.95
2022-08-20T03:33:29.509Z,3.22
2022-08-20T03:34:33.826Z,4.20
2022-08-20T03:35:39.424Z,3.80
2022-08-20T03:36:43.266Z,3.60
2022-08-20T03:37:55.493Z,4.25
2022-08-20T03:39:04.732Z,3.13
2022-08-20T03:40:15.802Z,3.42
2022-08-20T03:41:20.215Z,4.00
2022-08-20T03:42:24.021Z,3.42
2022-08-20T03:43:28.498Z,3.83
2022-08-20T03:44:32.860Z,4.47
2022-08-20T03:45:40.210Z,3.90
2022-08-20T03:46:44.105Z,3.50
2022-08-20T03:47:49.808Z,4.35
2022-08-20T03:49:00.236Z,3.55
2022-08-20T03:50:11.120Z,4.18
2022-08-20T03:51:27.101Z,3.15
2022-08-20T03:52:31.154Z,3.47
2022-08-20T03:53:36.015Z,4.32
2022-08-20T03:54:40.435Z,3.35
2022-08-20T03:55:56.442Z,3.55
2022-08-20T03:57:12.302Z,3.80
2022-08-20T03:58:18.170Z,3.13
2022-08-20T03:59:22.164Z,3.58
2022-08-20T04:00:45.547Z,3.50
2022-08-20T04:01:49.413Z,4.15
2022-08-20T04:02:53.745Z,3.63
2022-08-20T04:03:58.819Z,4.70
2022-08-20T04:05:04.678Z,3.20
2022-08-20T04:06:09.684Z,3.88
2022-08-20T04:07:20.777Z,4.03
2022-08-20T04:08:29.677Z,3.30
2022-08-20T04:09:33.672Z,3.45
2022-08-20T04:10:38.283Z,3.63
2022-08-20T04:11:43.306Z,3.38
2022-08-20T04:12:53.072Z,4.78
2022-08-20T04:13:57.133Z,3.53
2022-08-20T04:15:02.070Z,3.60
2022-08-20T04:16:11.284Z,4.47
2022-08-20T04:17:20.745Z,3.47
2022-08-20T04:18:26.862Z,3.50
2022-08-20T04:19:34.227Z,3.80
2022-08-20T04:20:41.514Z,3.97
2022-08-20T04:21:48.837Z,4.07
2022-08-20T04:22:59.082Z,3.40
2022-08-20T04:24:08.472Z,4.10
2022-08-20T04:25:36.161Z,3.65
2022-08-20T04:26:40.130Z,4.28
2022-08-20T04:27:46.394Z,4.22
2022-08-20T04:28:55.879Z,3.67
2022-08-20T04:30:04.219Z,4.50
2022-08-20T04:31:09.286Z,3.38
2022-08-20T04:32:14.297Z,3.05
2022-08-20T04:33:35.140Z,3.40
2022-08-20T04:34:40.915Z,3.42
2022-08-20T04:35:48.806Z,4.07
2022-08-20T04:36:54.651Z,3.22
2022-08-20T04:38:14.190Z,3.72
2022-08-20T04:39:19.136Z,3.72
2022-08-20T04:40:41.875Z,3.70
2022-08-20T04:41:45.756Z,4.65
2022-08-20T04:42:49.761Z,2.88
2022-08-20T04:43:58.933Z,3.75
2022-08-20T04:45:04.447Z,3.50
2022-08-20T04:46:17.158Z,3.42
2022-08-20T04:47:23.919Z,3.28
2022-08-20T04:48:42.147Z,4.60
2022-08-20T04:49:53.089Z,4.18
2022-08-20T04:51:03.966Z,5.03
2022-08-20T04:52:07.863Z,3.78
2022-08-20T04:53:20.692Z,3.70
2022-08-20T04:54:27.297Z,4.30
2022-08-20T04:55:32.550Z,3.70
2022-08-20T04:56:40.152Z,3.78
2022-08-20T04:57:46.295Z,4.10
2022-08-20T04:58:51.571Z,4.13
2022-08-20T04:59:59.361Z,3.95
2022-08-20T05:01:11.562Z,4.38
2022-08-20T05:02:19.104Z,3.90
2022-08-20T05:03:24.408Z,4.22
2022-08-20T05:04:29.131Z,3.40
2022-08-20T05:05:35.444Z,3.88
2022-08-20T05:06:41.272Z,3.38
2022-08-20T05:07:47.128Z,3.83
2022-08-20T05:08:51.301Z,3.38
2022-08-20T05:09:55.195Z,4.00
2022-08-20T05:11:32.633Z,3.92
2022-08-20T05:12:24.278Z,3.70
2022-08-20T05:13:28.836Z,4.38
2022-08-20T05:14:32.792Z,3.05
2022-08-20T05:15:39.087Z,4.13
2022-08-20T05:16:42.892Z,4.10
2022-08-20T05:17:47.083Z,4.05
2022-08-20T05:18:52.900Z,5.18
2022-08-20T05:19:59.356Z,3.78
2022-08-20T05:21:07.440Z,3.25
2022-08-20T05:22:11.958Z,3.75
2022-08-20T05:23:20.103Z,4.15
2022-08-20T05:24:25.205Z,3.47
2022-08-20T05:25:30.989Z,3.08
2022-08-20T05:26:35.230Z,4.10
2022-08-20T05:27:39.774Z,4.40
2022-08-20T05:28:54.146Z,3.50
2022-08-20T05:30:13.679Z,3.78
2022-08-20T05:31:21.254Z,3.70
2022-08-20T05:32:25.593Z,3.80
2022-08-20T05:33:30.294Z,4.07
2022-08-20T05:34:34.297Z,3.97
2022-08-20T05:35:41.380Z,4.07
2022-08-20T05:36:49.276Z,3.13
2022-08-20T05:37:54.454Z,3.53
2022-08-20T05:38:58.590Z,4.53
2022-08-20T05:40:02.820Z,4.40
2022-08-20T05:41:06.826Z,4.13
2022-08-20T05:42:12.136Z,3.08
2022-08-20T05:43:16.523Z,4.07
2022-08-20T05:44:23.516Z,3.72
2022-08-20T05:45:27.526Z,3.72
2022-08-20T05:46:32.489Z,3.92
2022-08-20T05:47:42.892Z,3.58
2022-08-20T05:48:47.787Z,2.85
2022-08-20T05:49:52.326Z,3.25
2022-08-20T05:50:58.054Z,3.08
2022-08-20T05:52:02.109Z,2.75
2022-08-20T05:53:07.233Z,3.47
2022-08-20T05:54:15.402Z,4.40
2022-08-20T05:55:19.370Z,3.80
2022-08-20T05:56:26.817Z,3.97
2022-08-20T05:57:31.063Z,3.33
2022-08-20T05:58:34.964Z,3.10
2022-08-20T05:59:39.744Z,5.68
2022-08-20T06:00:43.848Z,5.10
2022-08-20T06:01:47.853Z,5.25
2022-08-20T06:03:10.809Z,5.20
2022-08-20T06:04:32.259Z,4.20
2022-08-20T06:05:36.202Z,3.90
2022-08-20T06:06:45.651Z,4.18
2022-08-20T06:07:54.871Z,3.42
2022-08-20T06:09:13.760Z,3.58
2022-08-20T06:10:18.506Z,4.28
2022-08-20T06:11:23.292Z,3.95
2022-08-20T06:12:27.550Z,3.95
2022-08-20T06:13:31.570Z,3.53
2022-08-20T06:14:36.389Z,3.85
2022-08-20T06:15:40.512Z,3.80
2022-08-20T06:16:57.176Z,3.13
2022-08-20T06:18:27.357Z,3.65
2022-08-20T06:19:34.163Z,4.53
2022-08-20T06:20:39.700Z,4.70
2022-08-20T06:21:43.649Z,4.28
2022-08-20T06:22:47.571Z,4.03
2022-08-20T06:23:57.458Z,3.88
2022-08-20T06:25:08.510Z,4.45
2022-08-20T06:26:12.697Z,4.22
2022-08-20T06:27:17.844Z,4.53
2022-08-20T06:28:24.487Z,5.03
2022-08-20T06:29:36.913Z,4.03
2022-08-20T06:30:43.843Z,4.88
2022-08-20T06:31:47.725Z,3.67
2022-08-20T06:32:52.979Z,3.45
2022-08-20T06:33:57.247Z,4.10
2022-08-20T06:35:04.798Z,3.70
2022-08-20T06:36:09.612Z,3.50
2022-08-20T06:37:21.581Z,3.60
2022-08-20T06:38:25.769Z,4.45
2022-08-20T06:39:31.558Z,3.85
2022-08-20T06:40:35.514Z,3.20
2022-08-20T06:41:39.618Z,4.80
2022-08-20T06:42:48.513Z,4.17
2022-08-20T06:43:54.090Z,3.15
2022-08-20T06:44:59.929Z,4.15
2022-08-20T06:46:05.041Z,3.78
2022-08-20T06:47:09.797Z,3.95
2022-08-20T06:48:15.466Z,3.88
2022-08-20T06:49:19.583Z,4.30
2022-08-20T06:50:33.235Z,3.60
2022-08-20T06:51:40.043Z,3.63
2022-08-20T06:52:52.938Z,3.03
2022-08-20T06:53:58.206Z,4.05
2022-08-20T06:55:02.183Z,3.88
2022-08-20T06:56:06.812Z,4.25
2022-08-20T06:57:10.853Z,3.22
2022-08-20T06:58:30.521Z,3.50
2022-08-20T06:59:40.150Z,3.88
2022-08-20T07:00:45.531Z,3.72
2022-08-20T07:01:50.315Z,3.85
2022-08-20T07:02:55.739Z,3.30
2022-08-20T07:04:00.566Z,3.25
2022-08-20T07:05:07.051Z,3.63
2022-08-20T07:06:11.861Z,3.85
2022-08-20T07:07:19.984Z,3.67
2022-08-20T07:08:23.886Z,3.30
2022-08-20T07:09:28.577Z,4.47
2022-08-20T07:10:32.435Z,2.72
2022-08-20T07:11:36.540Z,4.47
2022-08-20T07:12:40.858Z,3.60
2022-08-20T07:13:45.579Z,3.88
2022-08-20T07:14:49.436Z,3.45
2022-08-20T07:15:53.995Z,2.88
2022-08-20T07:16:58.836Z,3.30
2022-08-20T07:18:05.765Z,3.28
2022-08-20T07:19:10.130Z,3.65
2022-08-20T07:20:16.072Z,4.35
2022-08-20T07:21:19.848Z,3.70
2022-08-20T07:22:24.989Z,4.07
2022-08-20T07:23:31.824Z,3.33
2022-08-20T07:24:37.886Z,3.95
2022-08-20T07:25:45.419Z,2.75
2022-08-20T07:26:52.246Z,3.92
2022-08-20T07:28:08.264Z,4.80
2022-08-20T07:29:13.585Z,5.00
2022-08-20T07:30:56.965Z,3.33
2022-08-20T07:32:22.436Z,3.75
2022-08-20T07:33:33.520Z,4.10
2022-08-20T07:34:37.929Z,3.92
2022-08-20T07:35:49.310Z,3.70
2022-08-20T07:36:53.307Z,3.65
2022-08-20T07:37:59.806Z,3.35
2022-08-20T07:39:08.006Z,3.67
2022-08-20T07:40:33.976Z,3.80
2022-08-20T07:41:37.913Z,3.50
2022-08-20T07:42:42.419Z,3.50
2022-08-20T07:43:48.454Z,4.07
2022-08-20T07:44:52.894Z,2.80
2022-08-20T07:46:03.510Z,3.30
2022-08-20T07:47:07.737Z,3.28
2022-08-20T07:48:14.513Z,3.85
2022-08-20T07:49:39.803Z,3.30
2022-08-20T07:50:44.233Z,3.17
2022-08-20T07:51:48.138Z,3.60
2022-08-20T07:52:53.308Z,3.80
2022-08-20T07:53:59.562Z,3.60
2022-08-20T07:55:11.609Z,3.88
2022-08-20T07:56:21.530Z,3.15
2022-08-20T07:57:25.356Z,3.50
2022-08-20T07:58:33.390Z,3.15
2022-08-20T07:59:38.673Z,3.85
2022-08-20T08:00:44.332Z,3.65
2022-08-20T08:01:48.398Z,4.03
2022-08-20T08:02:53.228Z,3.65
2022-08-20T08:03:58.788Z,3.38
2022-08-20T08:05:04.370Z,4.00
2022-08-20T08:06:10.024Z,3.53
2022-08-20T08:07:18.438Z,3.80
2022-08-20T08:08:28.647Z,3.90
2022-08-20T08:09:34.819Z,3.63
2022-08-20T08:10:41.072Z,3.63
2022-08-20T08:11:50.951Z,3.65
2022-08-20T08:13:01.031Z,3.95
2022-08-20T08:14:10.386Z,4.32
2022-08-20T08:15:22.752Z,3.50
2022-08-20T08:16:28.106Z,3.78
2022-08-20T08:17:32.067Z,3.80
2022-08-20T08:18:50.075Z,4.13
2022-08-20T08:19:54.178Z,3.97
2022-08-20T08:20:58.266Z,3.97
2022-08-20T08:22:02.343Z,3.83
2022-08-20T08:23:07.897Z,4.00
2022-08-20T08:24:24.311Z,3.70
2022-08-20T08:25:32.682Z,3.30
2022-08-20T08:26:36.702Z,3.75
2022-08-20T08:27:41.175Z,3.92
2022-08-20T08:28:45.219Z,3.83
2022-08-20T08:29:50.128Z,4.57
2022-08-20T08:30:54.742Z,3.58
2022-08-20T08:32:02.968Z,3.45
2022-08-20T08:33:27.148Z,4.05
2022-08-20T08:34:37.233Z,3.83
2022-08-20T08:35:46.767Z,3.70
2022-08-20T08:36:51.072Z,3.47
2022-08-20T08:37:55.093Z,2.75
2022-08-20T08:38:59.671Z,3.17
2022-08-20T08:40:06.274Z,4.03
2022-08-20T08:41:32.281Z,3.78
2022-08-20T08:42:46.755Z,3.88
2022-08-20T08:43:54.378Z,3.35
2022-08-20T08:45:00.789Z,3.40
2022-08-20T08:46:10.845Z,3.25
2022-08-20T08:47:38.072Z,3.53
2022-08-20T08:48:47.964Z,3.60
2022-08-20T08:49:52.094Z,3.30
2022-08-20T08:50:59.775Z,3.53
2022-08-20T08:52:12.534Z,3.00
2022-08-20T08:53:24.932Z,3.35
2022-08-20T08:54:32.641Z,3.35
2022-08-20T08:55:36.662Z,3.88
2022-08-20T08:56:40.657Z,5.25
2022-08-20T08:57:46.043Z,5.03
2022-08-20T08:58:49.991Z,4.45
2022-08-20T09:00:14.119Z,3.35
2022-08-20T09:01:54.504Z,3.08
2022-08-20T09:03:22.032Z,2.55
2022-08-20T09:04:39.473Z,3.13
2022-08-20T09:05:55.362Z,2.72
2022-08-20T09:07:02.016Z,4.35
2022-08-20T09:08:16.888Z,3.33
2022-08-20T09:09:32.369Z,3.05
2022-08-20T09:10:36.953Z,3.55
2022-08-20T09:12:21.112Z,3.35
2022-08-20T09:13:25.300Z,3.78
2022-08-20T09:14:29.373Z,2.75
2022-08-20T09:15:33.615Z,3.03
2022-08-20T09:16:45.742Z,2.92
2022-08-20T09:17:57.780Z,2.92
2022-08-20T09:19:04.781Z,3.28
2022-08-20T09:20:11.451Z,3.08
2022-08-20T09:21:15.433Z,3.22
2022-08-20T09:22:26.080Z,3.90
2022-08-20T09:23:30.492Z,3.15
2022-08-20T09:24:34.301Z,3.00
2022-08-20T09:25:38.366Z,3.53
2022-08-20T09:26:42.314Z,2.85
2022-08-20T09:27:46.292Z,3.70
2022-08-20T09:28:52.638Z,3.20
2022-08-20T09:29:56.875Z,3.67
2022-08-20T09:31:00.832Z,3.63
2022-08-20T09:32:10.097Z,3.28
2022-08-20T09:33:14.099Z,3.22
2022-08-20T09:34:17.972Z,3.40
2022-08-20T09:35:22.552Z,3.08
2022-08-20T09:36:32.032Z,3.72
2022-08-20T09:37:37.940Z,3.33
2022-08-20T09:38:41.997Z,3.22
2022-08-20T09:39:45.857Z,3.03
2022-08-20T09:40:50.081Z,2.80
2022-08-20T09:41:54.040Z,3.28
2022-08-20T09:42:58.232Z,3.38
2022-08-20T09:44:02.779Z,2.83
2022-08-20T09:45:10.885Z,3.75
2022-08-20T09:46:18.125Z,3.05
2022-08-20T09:47:22.984Z,4.47
2022-08-20T09:48:29.600Z,3.20
2022-08-20T09:49:40.824Z,3.40
2022-08-20T09:50:49.752Z,2.92
2022-08-20T09:51:53.624Z,2.83
2022-08-20T09:53:01.125Z,3.40
2022-08-20T09:54:06.259Z,2.88
2022-08-20T09:55:30.834Z,3.55
2022-08-20T09:56:36.308Z,2.88
2022-08-20T09:57:41.297Z,2.22
2022-08-20T09:58:53.096Z,2.83
2022-08-20T10:00:09.181Z,3.10
2022-08-20T10:01:18.563Z,3.13
2022-08-20T10:02:25.255Z,2.70
2022-08-20T10:03:29.153Z,3.75
2022-08-20T10:04:33.042Z,2.75
2022-08-20T10:05:37.156Z,2.95
2022-08-20T10:06:42.531Z,2.83
2022-08-20T10:07:46.378Z,2.80
2022-08-20T10:08:51.029Z,2.92
2022-08-20T10:09:55.351Z,2.95
2022-08-20T10:10:59.752Z,2.38
2022-08-20T10:12:04.838Z,2.70
2022-08-20T10:13:08.847Z,3.10
2022-08-20T10:14:17.208Z,2.42
2022-08-20T10:15:21.160Z,3.03
2022-08-20T10:16:25.879Z,2.70
2022-08-20T10:17:29.783Z,3.42
2022-08-20T10:18:35.712Z,3.30
2022-08-20T10:19:39.768Z,2.83
2022-08-20T10:20:43.883Z,3.33
2022-08-20T10:21:50.972Z,3.20
2022-08-20T10:22:54.775Z,2.40
2022-08-20T10:24:00.090Z,3.05
2022-08-20T10:25:07.026Z,2.70
2022-08-20T10:26:12.713Z,2.78
2022-08-20T10:27:16.868Z,2.70
2022-08-20T10:28:21.848Z,3.22
2022-08-20T10:29:29.247Z,2.42
2022-08-20T10:30:34.130Z,2.72
2022-08-20T10:31:38.244Z,3.22
2022-08-20T10:32:42.881Z,2.55
2022-08-20T10:33:47.713Z,2.80
2022-08-20T10:34:53.108Z,2.92
2022-08-20T10:36:00.077Z,2.70
2022-08-20T10:37:04.223Z,2.38
2022-08-20T10:38:08.503Z,2.33
2022-08-20T10:39:13.161Z,3.25
2022-08-20T10:40:17.404Z,3.22
2022-08-20T10:41:21.763Z,3.10
2022-08-20T10:42:25.541Z,2.10
2022-08-20T10:43:29.457Z,3.13
2022-08-20T10:44:33.480Z,3.13
2022-08-20T10:45:37.323Z,2.75
2022-08-20T10:46:45.947Z,2.95
2022-08-20T10:47:49.826Z,3.30
2022-08-20T10:48:54.470Z,3.22
2022-08-20T10:50:02.483Z,2.90
2022-08-20T10:51:07.025Z,3.90
2022-08-20T10:52:11.057Z,3.47
2022-08-20T10:53:15.107Z,3.08
2022-08-20T10:54:19.035Z,2.80
2022-08-20T10:55:23.387Z,2.85
2022-08-20T10:56:27.373Z,2.33
2022-08-20T10:57:36.583Z,3.13
2022-08-20T10:58:40.454Z,3.38
2022-08-20T10:59:48.987Z,2.85
2022-08-20T11:00:53.679Z,2.35
2022-08-20T11:01:57.716Z,2.90
2022-08-20T11:03:02.024Z,3.50
2022-08-20T11:04:05.941Z,3.13
2022-08-20T11:05:10.812Z,2.38
2022-08-20T11:06:15.301Z,2.50
2022-08-20T11:07:55.501Z,2.40
2022-08-20T11:08:58.481Z,3.22
2022-08-20T11:10:04.080Z,2.47
2022-08-20T11:11:09.014Z,3.00
2022-08-20T11:12:14.514Z,2.90
2022-08-20T11:13:18.515Z,3.00
2022-08-20T11:14:22.507Z,3.10
2022-08-20T11:15:27.435Z,2.55
2022-08-20T11:16:32.038Z,2.92
2022-08-20T11:17:40.159Z,3.85
2022-08-20T11:18:47.497Z,2.78
2022-08-20T11:19:53.363Z,2.80
2022-08-20T11:20:58.201Z,2.90
2022-08-20T11:22:02.281Z,2.42
2022-08-20T11:23:06.477Z,2.30
2022-08-20T11:24:10.817Z,3.88
2022-08-20T11:25:15.945Z,2.97
2022-08-20T11:26:25.701Z,2.35
2022-08-20T11:27:36.007Z,2.53
2022-08-20T11:28:40.104Z,2.90
2022-08-20T11:29:43.916Z,2.40
2022-08-20T11:30:50.280Z,2.38
2022-08-20T11:31:54.143Z,2.95
2022-08-20T11:33:00.935Z,2.67
2022-08-20T11:34:07.384Z,2.15
2022-08-20T11:35:41.726Z,2.40
2022-08-20T11:36:40.901Z,2.92
2022-08-20T11:37:45.237Z,2.78
2022-08-20T11:38:50.159Z,2.60
2022-08-20T11:39:55.319Z,2.78
2022-08-20T11:40:59.292Z,3.63
2022-08-20T11:42:03.518Z,3.40
2022-08-20T11:43:16.324Z,3.38
2022-08-20T11:44:21.758Z,3.15
2022-08-20T11:45:25.773Z,3.50
2022-08-20T11:46:29.840Z,2.55
2022-08-20T11:47:36.029Z,2.95
2022-08-20T11:48:40.029Z,3.25
2022-08-20T11:49:43.868Z,3.40
2022-08-20T11:50:49.159Z,3.38
2022-08-20T11:51:53.341Z,2.50
2022-08-20T11:52:57.185Z,3.28
2022-08-20T11:54:02.571Z,2.40
2022-08-20T11:55:12.507Z,3.17
2022-08-20T11:56:20.806Z,2.50
2022-08-20T11:57:30.327Z,3.22
2022-08-20T11:58:34.753Z,2.50
2022-08-20T11:59:38.747Z,3.08
2022-08-20T12:00:43.357Z,3.38
2022-08-20T12:02:02.454Z,2.67
2022-08-20T12:03:11.852Z,3.08
2022-08-20T12:04:16.356Z,2.97
2022-08-20T12:05:20.861Z,2.70
2022-08-20T12:06:24.759Z,2.95
2022-08-20T12:07:28.965Z,3.40
2022-08-20T12:08:32.668Z,2.70
2022-08-20T12:09:41.151Z,2.40
2022-08-20T12:10:54.238Z,3.78
2022-08-20T12:11:58.032Z,2.75
2022-08-20T12:13:02.726Z,2.78
2022-08-20T12:14:08.864Z,2.92
2022-08-20T12:15:17.353Z,2.75
2022-08-20T12:16:22.874Z,3.00
2022-08-20T12:17:30.469Z,3.78
2022-08-20T12:18:34.689Z,2.92
2022-08-20T12:19:43.955Z,2.83
2022-08-20T12:20:48.253Z,3.28
2022-08-20T12:21:57.746Z,2.55
2022-08-20T12:23:01.684Z,2.97
2022-08-20T12:24:05.695Z,3.50
2022-08-20T12:25:10.166Z,3.45
2022-08-20T12:26:17.109Z,3.88
2022-08-20T12:27:26.816Z,4.13
2022-08-20T12:28:32.199Z,3.35
2022-08-20T12:29:36.278Z,3.50
2022-08-20T12:30:42.375Z,3.30
2022-08-20T12:31:46.246Z,3.47
2022-08-20T12:32:50.710Z,5.00
2022-08-20T12:33:54.557Z,3.92
2022-08-20T12:34:59.373Z,3.55
2022-08-20T12:36:03.678Z,3.22
2022-08-20T12:37:18.647Z,3.65
2022-08-20T12:38:22.434Z,3.05
2022-08-20T12:39:26.444Z,3.53
2022-08-20T12:40:32.907Z,4.35
2022-08-20T12:41:36.989Z,4.82
2022-08-20T12:42:41.495Z,4.35
2022-08-20T12:43:45.247Z,3.80
2022-08-20T12:44:50.821Z,3.33
2022-08-20T12:45:55.732Z,2.92
2022-08-20T12:47:11.453Z,3.30
2022-08-20T12:48:16.065Z,3.40
2022-08-20T12:49:19.919Z,2.85
2022-08-20T12:50:31.294Z,2.85
2022-08-20T12:51:35.628Z,3.20
2022-08-20T12:52:41.466Z,2.35
2022-08-20T12:53:45.264Z,3.97
2022-08-20T12:54:50.092Z,3.35
2022-08-20T12:55:53.998Z,2.65
2022-08-20T12:56:58.096Z,2.88
2022-08-20T12:58:04.971Z,3.42
2022-08-20T12:59:09.408Z,2.75
2022-08-20T13:00:24.313Z,4.13
2022-08-20T13:01:28.369Z,3.33
2022-08-20T13:02:32.600Z,4.68
2022-08-20T13:03:40.198Z,3.67
2022-08-20T13:04:49.653Z,3.28
2022-08-20T13:05:53.475Z,3.28
2022-08-20T13:07:05.622Z,3.15
2022-08-20T13:08:14.349Z,3.53
2022-08-20T13:09:19.068Z,3.15
2022-08-20T13:10:32.153Z,3.20
2022-08-20T13:11:36.201Z,3.78
2022-08-20T13:12:40.282Z,3.78
2022-08-20T13:13:46.607Z,3.08
2022-08-20T13:14:50.471Z,2.78
2022-08-20T13:15:54.646Z,2.47
2022-08-20T13:17:03.119Z,2.95
2022-08-20T13:18:08.684Z,2.97
2022-08-20T13:19:12.777Z,3.40
2022-08-20T13:20:18.268Z,3.03
2022-08-20T13:21:24.022Z,3.45
2022-08-20T13:22:28.032Z,3.20
2022-08-20T13:23:31.899Z,3.15
2022-08-20T13:24:35.746Z,3.05
2022-08-20T13:25:39.538Z,3.35
2022-08-20T13:26:43.501Z,3.60
2022-08-20T13:27:48.107Z,3.22
2022-08-20T13:28:52.242Z,3.50
2022-08-20T13:29:59.099Z,2.97
2022-08-20T13:31:03.699Z,3.20
2022-08-20T13:32:08.978Z,2.95
2022-08-20T13:33:12.934Z,3.03
2022-08-20T13:34:16.726Z,3.03
2022-08-20T13:35:20.958Z,3.25
2022-08-20T13:36:25.179Z,4.13
2022-08-20T13:37:30.507Z,3.63
2022-08-20T13:38:34.622Z,3.85
2022-08-20T13:39:40.495Z,3.30
2022-08-20T13:40:44.459Z,2.88
2022-08-20T13:41:52.546Z,2.67
2022-08-20T13:42:56.544Z,2.25
2022-08-20T13:44:00.632Z,2.50
2022-08-20T13:45:07.406Z,2.72
2022-08-20T13:46:12.262Z,1.80
2022-08-20T13:47:24.030Z,2.22
2022-08-20T13:48:28.056Z,1.55
2022-08-20T13:49:33.850Z,1.98
2022-08-20T13:50:38.396Z,1.50
2022-08-20T13:51:42.140Z,2.10
2022-08-20T13:52:47.316Z,1.88
2022-08-20T13:53:52.309Z,1.95
2022-08-20T13:54:56.333Z,1.10
2022-08-20T13:56:00.746Z,1.20
2022-08-20T13:57:11.404Z,1.67
2022-08-20T13:58:18.508Z,1.30
2022-08-20T13:59:22.426Z,1.15
2022-08-20T14:00:32.576Z,1.33
2022-08-20T14:01:36.672Z,1.02
2022-08-20T14:02:42.882Z,1.15
2022-08-20T14:03:48.048Z,0.70
2022-08-20T14:04:53.851Z,0.88
2022-08-20T14:05:58.132Z,1.95
2022-08-20T14:07:17.870Z,2.20
2022-08-20T14:08:24.377Z,1.75
2022-08-20T14:09:28.900Z,2.45
2022-08-20T14:10:33.672Z,1.00
2022-08-20T14:11:37.463Z,1.50
2022-08-20T14:12:42.031Z,2.22
2022-08-20T14:13:45.864Z,1.45
2022-08-20T14:14:52.120Z,1.92
2022-08-20T14:15:56.941Z,1.27
2022-08-20T14:17:11.640Z,1.25
2022-08-20T14:18:16.511Z,1.67
2022-08-20T14:19:20.435Z,1.38
2022-08-20T14:20:32.142Z,0.95
2022-08-20T14:21:36.851Z,1.42
2022-08-20T14:22:42.758Z,1.35
2022-08-20T14:23:46.913Z,1.17
2022-08-20T14:24:52.051Z,1.30
2022-08-20T14:25:56.756Z,1.65
2022-08-20T14:27:00.846Z,1.35
2022-08-20T14:28:23.656Z,2.15
2022-08-20T14:29:27.737Z,2.03
2022-08-20T14:30:36.766Z,1.77
2022-08-20T14:31:40.716Z,1.70
2022-08-20T14:32:45.009Z,1.35
2022-08-20T14:33:49.213Z,2.22
2022-08-20T14:34:57.574Z,1.55
2022-08-20T14:36:01.341Z,1.20
2022-08-20T14:37:20.580Z,1.77
2022-08-20T14:38:24.451Z,1.40
2022-08-20T14:39:28.401Z,1.80
2022-08-20T14:40:32.982Z,1.85
2022-08-20T14:41:37.188Z,1.58
2022-08-20T14:42:41.804Z,1.30
2022-08-20T14:43:47.287Z,2.30
2022-08-20T14:44:51.706Z,1.90
2022-08-20T14:45:57.750Z,2.45
2022-08-20T14:47:23.150Z,2.20
2022-08-20T14:48:28.459Z,1.60
2022-08-20T14:49:32.330Z,1.98
2022-08-20T14:50:39.006Z,1.55
2022-08-20T14:51:43.464Z,1.90
2022-08-20T14:52:48.069Z,2.15
2022-08-20T14:53:51.915Z,2.70
2022-08-20T14:54:55.948Z,2.20
2022-08-20T14:56:01.604Z,2.25
2022-08-20T14:57:06.387Z,1.90
2022-08-20T14:58:17.510Z,2.03
2022-08-20T14:59:22.051Z,2.40